createdAt,value
2022-08-12T00:00:20.726Z,95.00
2022-08-12T00:05:39.700Z,97.00
2022-08-12T00:11:16.432Z,97.90
2022-08-12T00:16:32.128Z,96.70
2022-08-12T00:21:48.561Z,97.30
2022-08-12T00:27:06.171Z,95.30
2022-08-12T00:32:35.817Z,95.40
2022-08-12T00:37:52.612Z,95.10
2022-08-12T00:42:51.533Z,95.00
2022-08-12T00:47:51.822Z,95.40
2022-08-12T00:52:52.677Z,95.60
2022-08-12T00:57:51.628Z,96.20
2022-08-12T01:02:52.488Z,96.80
2022-08-12T01:08:10.134Z,96.60
2022-08-12T01:13:19.722Z,97.30
2022-08-12T01:18:23.445Z,98.30
2022-08-12T01:23:45.659Z,99.10
2022-08-12T01:28:44.957Z,99.80
2022-08-12T01:33:59.960Z,99.90
2022-08-12T01:38:59.983Z,99.90
2022-08-12T01:44:04.163Z,99.90
2022-08-12T01:49:16.329Z,99.90
2022-08-12T01:54:20.108Z,99.90
2022-08-12T01:59:47.129Z,99.90
2022-08-12T02:05:55.339Z,99.90
2022-08-12T02:11:23.183Z,99.90
2022-08-12T02:16:36.557Z,99.90
2022-08-12T02:21:46.684Z,99.90
2022-08-12T02:26:47.489Z,99.90
2022-08-12T02:31:48.379Z,99.90
2022-08-12T02:36:46.961Z,99.90
2022-08-12T02:41:47.333Z,99.90
2022-08-12T02:46:50.398Z,99.90
2022-08-12T02:51:48.403Z,99.90
2022-08-12T02:56:50.651Z,99.90
2022-08-12T03:01:51.298Z,99.90
2022-08-12T03:07:01.398Z,99.90
2022-08-12T03:12:07.993Z,99.90
2022-08-12T03:17:18.393Z,99.90
2022-08-12T03:22:18.933Z,99.90
2022-08-12T03:27:17.254Z,99.90
2022-08-12T03:32:36.009Z,99.90
2022-08-12T03:37:35.637Z,99.90
2022-08-12T03:42:41.827Z,99.90
2022-08-12T03:48:10.029Z,99.90
2022-08-12T03:53:27.705Z,99.90
2022-08-12T03:58:44.985Z,99.90
2022-08-12T04:03:54.952Z,99.90
2022-08-12T04:08:54.078Z,99.90
2022-08-12T04:13:51.640Z,99.90
2022-08-12T04:18:49.068Z,99.90
2022-08-12T04:23:48.670Z,99.90
2022-08-12T04:28:46.125Z,99.90
2022-08-12T04:33:44.352Z,99.90
2022-08-12T04:38:43.700Z,99.90
2022-08-12T04:43:59.791Z,99.90
2022-08-12T04:49:00.439Z,99.90
2022-08-12T04:53:58.154Z,99.90
2022-08-12T04:58:59.612Z,99.90
2022-08-12T05:03:58.235Z,99.90
2022-08-12T05:08:56.780Z,99.90
2022-08-12T05:14:00.555Z,99.90
2022-08-12T05:18:58.901Z,99.90
2022-08-12T05:23:56.982Z,99.90
2022-08-12T05:28:57.258Z,99.90
2022-08-12T05:33:54.520Z,99.90
2022-08-12T05:38:57.900Z,99.90
2022-08-12T05:44:03.875Z,99.90
2022-08-12T05:49:02.160Z,99.90
2022-08-12T05:54:00.362Z,99.90
2022-08-12T05:58:59.593Z,99.90
2022-08-12T06:03:57.269Z,99.90
2022-08-12T06:08:55.818Z,99.90
2022-08-12T06:13:58.713Z,99.90
2022-08-12T06:18:55.900Z,99.90
2022-08-12T06:23:53.470Z,99.90
2022-08-12T06:28:51.469Z,99.90
2022-08-12T06:33:54.973Z,99.90
2022-08-12T06:38:53.790Z,99.90
2022-08-12T06:44:06.688Z,99.90
2022-08-12T06:49:04.984Z,99.90
2022-08-12T06:54:02.604Z,99.90
2022-08-12T06:59:02.109Z,99.90
2022-08-12T07:04:14.234Z,99.90
2022-08-12T07:10:05.057Z,99.90
2022-08-12T07:14:40.110Z,99.90
2022-08-12T07:19:40.694Z,99.90
2022-08-12T07:24:42.860Z,99.90
2022-08-12T07:30:02.787Z,99.90
2022-08-12T07:34:57.405Z,99.90
2022-08-12T07:39:59.476Z,99.90
2022-08-12T07:44:59.328Z,99.90
2022-08-12T07:50:04.589Z,99.90
2022-08-12T07:55:04.580Z,99.90
2022-08-12T08:00:06.082Z,98.10
2022-08-12T08:05:04.660Z,97.90
2022-08-12T08:10:05.641Z,97.40
2022-08-12T08:15:02.999Z,97.80
2022-08-12T08:20:02.903Z,99.90
2022-08-12T08:25:02.649Z,99.90
2022-08-12T08:30:00.190Z,99.90
2022-08-12T08:34:57.549Z,99.90
2022-08-12T08:40:15.789Z,99.90
2022-08-12T08:45:13.232Z,99.90
2022-08-12T08:50:10.920Z,99.90
2022-08-12T08:55:10.270Z,99.90
2022-08-12T09:00:12.185Z,99.90
2022-08-12T09:05:22.471Z,99.70
2022-08-12T09:10:30.886Z,99.90
2022-08-12T09:15:35.797Z,99.90
2022-08-12T09:20:35.828Z,99.90
2022-08-12T09:25:35.621Z,99.90
2022-08-12T09:30:41.644Z,99.90
2022-08-12T09:35:44.472Z,99.90
2022-08-12T09:41:02.280Z,99.90
2022-08-12T09:46:11.713Z,99.90
2022-08-12T09:51:22.489Z,99.90
2022-08-12T09:56:58.401Z,99.90
2022-08-12T10:02:42.618Z,99.70
2022-08-12T10:06:57.731Z,98.10
2022-08-12T10:12:14.145Z,96.60
2022-08-12T10:17:12.570Z,97.10
2022-08-12T10:22:17.159Z,97.70
2022-08-12T10:28:04.252Z,96.40
2022-08-12T10:33:03.409Z,96.60
2022-08-12T10:38:38.003Z,95.90
2022-08-12T10:43:55.542Z,96.10
2022-08-12T10:48:58.526Z,97.40
2022-08-12T10:54:04.672Z,98.90
2022-08-12T10:59:10.807Z,99.90
2022-08-12T11:04:35.892Z,98.80
2022-08-12T11:09:54.218Z,99.40
2022-08-12T11:14:51.373Z,99.90
2022-08-12T11:19:49.001Z,99.90
2022-08-12T11:24:51.483Z,99.90
2022-08-12T11:30:06.008Z,99.90
2022-08-12T11:35:04.749Z,99.90
2022-08-12T11:40:03.702Z,99.90
2022-08-12T11:45:01.125Z,99.90
2022-08-12T11:49:58.455Z,99.90
2022-08-12T11:54:55.839Z,99.90
2022-08-12T12:05:11.844Z,99.90
2022-08-12T12:10:13.782Z,99.90
2022-08-12T12:15:12.438Z,99.90
2022-08-12T12:20:11.840Z,99.90
2022-08-12T12:25:13.814Z,99.90
2022-08-12T12:30:17.509Z,99.90
2022-08-12T12:36:06.172Z,99.90
2022-08-12T12:40:45.365Z,99.90
2022-08-12T12:45:46.546Z,99.90
2022-08-12T12:51:13.746Z,97.40
2022-08-12T12:56:33.902Z,96.90
2022-08-12T13:01:38.215Z,96.60
2022-08-12T13:06:42.151Z,98.30
2022-08-12T13:11:44.605Z,99.00
2022-08-12T13:16:44.569Z,99.90
2022-08-12T13:22:02.134Z,99.90
2022-08-12T13:27:01.695Z,99.90
2022-08-12T13:32:19.041Z,99.90
2022-08-12T13:37:26.508Z,99.90
2022-08-12T13:42:23.944Z,99.90
2022-08-12T13:47:25.307Z,99.90
2022-08-12T13:52:25.705Z,99.90
2022-08-12T13:57:23.209Z,99.90
2022-08-12T14:02:24.373Z,99.90
2022-08-12T14:07:21.879Z,99.90
2022-08-12T14:12:20.416Z,99.90
2022-08-12T14:17:22.637Z,99.90
2022-08-12T14:22:20.395Z,99.90
2022-08-12T14:28:02.864Z,99.90
2022-08-12T14:32:36.042Z,99.90
2022-08-12T14:37:57.511Z,99.90
2022-08-12T14:42:50.732Z,99.90
2022-08-12T14:47:58.381Z,99.90
2022-08-12T14:58:13.929Z,99.90
2022-08-12T15:03:11.653Z,99.90
2022-08-12T15:08:22.452Z,99.90
2022-08-12T15:13:21.264Z,99.90
2022-08-12T15:18:25.587Z,99.90
2022-08-12T15:23:29.037Z,99.90
2022-08-12T15:28:33.972Z,99.90
2022-08-12T15:33:45.352Z,99.90
2022-08-12T15:38:43.763Z,99.90
2022-08-12T15:44:15.670Z,99.90
2022-08-12T15:49:00.323Z,99.90
2022-08-12T15:54:34.160Z,99.90
2022-08-12T15:59:51.159Z,99.90
2022-08-12T16:04:44.968Z,99.90
2022-08-12T16:10:06.210Z,99.90
2022-08-12T16:15:04.896Z,99.90
2022-08-12T16:20:05.710Z,99.90
2022-08-12T16:25:04.131Z,99.90
2022-08-12T16:30:02.807Z,99.90
2022-08-12T16:35:01.480Z,99.90
2022-08-12T16:40:04.627Z,99.90
2022-08-12T16:45:03.894Z,99.90
2022-08-12T16:50:08.050Z,99.90
2022-08-12T16:55:13.051Z,99.90
2022-08-12T17:00:17.182Z,99.90
2022-08-12T17:05:17.863Z,99.90
2022-08-12T17:10:35.596Z,99.90
2022-08-12T17:15:57.003Z,99.90
2022-08-12T17:20:56.552Z,99.90
2022-08-12T17:25:59.292Z,99.90
2022-08-12T17:31:01.784Z,99.90
2022-08-12T17:36:01.577Z,99.90
2022-08-12T17:40:59.003Z,99.90
2022-08-12T17:46:13.001Z,99.90
2022-08-12T17:51:16.483Z,99.90
2022-08-12T17:56:14.792Z,99.90
2022-08-12T18:01:17.883Z,99.90
2022-08-12T18:06:15.543Z,99.90
2022-08-12T18:12:03.213Z,99.90
2022-08-12T18:16:50.597Z,99.90
2022-08-12T18:22:01.965Z,99.90
2022-08-12T18:27:01.410Z,99.90
2022-08-12T18:32:34.765Z,99.90
2022-08-12T18:37:42.589Z,99.90
2022-08-12T18:42:41.359Z,99.90
2022-08-12T18:47:52.999Z,99.90
2022-08-12T18:52:52.531Z,99.90
2022-08-12T18:58:08.163Z,99.90
2022-08-12T19:03:09.245Z,99.90
2022-08-12T19:08:26.678Z,99.90
2022-08-12T19:13:43.699Z,99.90
2022-08-12T19:18:44.505Z,99.90
2022-08-12T19:23:42.570Z,99.90
2022-08-12T19:28:40.580Z,99.90
2022-08-12T19:33:39.633Z,99.90
2022-08-12T19:38:56.882Z,99.90
2022-08-12T19:44:00.565Z,99.90
2022-08-12T19:49:15.846Z,99.90
2022-08-12T19:54:22.846Z,99.90
2022-08-12T19:59:43.599Z,99.90
2022-08-12T20:06:03.840Z,99.90
2022-08-12T20:10:22.007Z,99.90
2022-08-12T20:15:22.248Z,99.90
2022-08-12T20:20:28.233Z,99.90
2022-08-12T20:25:28.161Z,99.90
2022-08-12T20:30:56.235Z,99.90
2022-08-12T20:36:13.424Z,99.90
2022-08-12T20:41:16.521Z,99.90
2022-08-12T20:46:17.705Z,99.90
2022-08-12T20:51:18.972Z,99.90
2022-08-12T20:56:30.819Z,99.90
2022-08-12T21:01:46.684Z,99.90
2022-08-12T21:07:08.476Z,99.90
2022-08-12T21:12:31.733Z,99.90
2022-08-12T21:17:33.980Z,99.90
2022-08-12T21:22:46.031Z,99.90
2022-08-12T21:27:59.446Z,99.90
2022-08-12T21:32:58.509Z,99.90
2022-08-12T21:37:57.938Z,99.90
2022-08-12T21:42:55.196Z,99.90
2022-08-12T21:47:53.216Z,99.90
2022-08-12T21:52:51.059Z,99.90
2022-08-12T21:57:54.405Z,99.90
2022-08-12T22:03:11.316Z,99.90
2022-08-12T22:08:14.495Z,99.90
2022-08-12T22:14:03.038Z,99.90
2022-08-12T22:18:29.941Z,99.90
2022-08-12T22:23:28.360Z,99.90
2022-08-12T22:29:04.326Z,99.90
2022-08-12T22:34:02.779Z,99.90
2022-08-12T22:39:00.621Z,99.90
2022-08-12T22:44:17.012Z,99.90
2022-08-12T22:49:14.193Z,99.90
2022-08-12T22:54:35.886Z,99.90
2022-08-12T22:59:51.237Z,99.90
2022-08-12T23:04:50.500Z,99.90
2022-08-12T23:09:48.971Z,99.90
2022-08-12T23:14:48.718Z,99.90
2022-08-12T23:19:46.048Z,99.90
2022-08-12T23:24:55.905Z,99.90
2022-08-12T23:30:17.626Z,99.90
2022-08-12T23:35:18.639Z,99.90
2022-08-12T23:40:22.311Z,99.90
2022-08-12T23:45:31.460Z,99.90
2022-08-12T23:50:35.068Z,99.90
2022-08-12T23:55:40.694Z,99.90
